createdAt,value
2023-01-31T05:38:28.218Z,80.60
2023-01-31T05:40:55.167Z,89.10
2023-01-31T05:43:22.123Z,99.90
2023-01-31T05:45:49.973Z,98.00
2023-01-31T05:48:17.027Z,99.90
2023-01-31T05:58:06.489Z,98.90
2023-01-31T06:00:33.422Z,99.90
2023-01-31T06:03:00.979Z,99.90
2023-01-31T06:05:28.236Z,99.90
2023-01-31T06:07:55.504Z,99.80
2023-01-31T06:10:22.663Z,99.90
2023-01-31T06:12:49.726Z,99.90
2023-01-31T06:15:17.184Z,99.90
2023-01-31T06:17:44.127Z,99.90
2023-01-31T06:20:11.769Z,99.90
2023-01-31T06:22:38.731Z,99.90
2023-01-31T06:25:06.503Z,99.90
2023-01-31T06:27:34.362Z,99.90
2023-01-31T06:30:01.844Z,99.90
2023-01-31T06:32:28.834Z,99.90
2023-01-31T06:34:56.189Z,99.90
2023-01-31T06:37:23.222Z,99.90
2023-01-31T06:39:50.192Z,95.50
2023-01-31T06:42:17.167Z,91.60
2023-01-31T06:44:44.195Z,91.00
2023-01-31T06:47:12.922Z,78.20
2023-01-31T06:49:39.846Z,90.00
2023-01-31T06:52:06.842Z,54.90
2023-01-31T06:54:33.854Z,71.10
2023-01-31T06:57:00.798Z,56.90
2023-01-31T06:59:27.772Z,12.00
2023-01-31T07:01:54.943Z,71.50
2023-01-31T07:06:49.484Z,44.70
2023-01-31T07:14:11.236Z,97.80
2023-01-31T07:28:55.344Z,99.90
2023-01-31T07:36:19.931Z,99.90
2023-01-31T07:38:46.967Z,8.80
2023-01-31T07:41:13.856Z,1.00
2023-01-31T07:43:40.845Z,1.00
2023-01-31T07:46:10.399Z,1.00
2023-01-31T07:48:38.543Z,1.00
2023-01-31T07:51:06.426Z,1.00
2023-01-31T07:53:41.909Z,1.00
2023-01-31T07:56:19.754Z,23.40
2023-01-31T07:58:48.562Z,26.40
2023-01-31T08:01:43.262Z,1.00
2023-01-31T08:04:21.528Z,1.00
2023-01-31T08:06:52.044Z,1.00
2023-01-31T08:09:18.991Z,1.00
2023-01-31T08:11:46.160Z,1.00
2023-01-31T08:14:13.343Z,1.00
2023-01-31T08:16:40.341Z,1.00
2023-01-31T08:19:07.368Z,1.00
2023-01-31T08:21:34.320Z,1.00
2023-01-31T08:31:26.897Z,1.00
2023-01-31T08:33:55.278Z,1.00
2023-01-31T08:58:48.779Z,1.00
2023-01-31T09:01:19.052Z,1.00
2023-01-31T09:03:48.000Z,99.90
2023-01-31T09:06:20.947Z,1.00
2023-01-31T09:08:48.314Z,99.90
2023-01-31T09:11:18.789Z,1.00
2023-01-31T09:13:47.680Z,99.90
2023-01-31T09:16:15.212Z,85.70
2023-01-31T09:23:43.767Z,1.00
2023-01-31T09:57:17.243Z,99.90
2023-01-31T10:00:18.042Z,1.00
2023-01-31T10:03:28.686Z,99.90
2023-01-31T10:08:51.674Z,99.90
2023-01-31T10:11:29.412Z,99.90
2023-01-31T10:14:28.033Z,1.00
2023-01-31T10:19:50.745Z,8.40
2023-01-31T10:25:21.163Z,99.90
2023-01-31T10:27:56.402Z,1.00
2023-01-31T10:30:38.839Z,1.00
2023-01-31T11:41:36.782Z,99.90
2023-01-31T12:03:03.255Z,14.70
2023-01-31T12:10:58.906Z,1.00
2023-01-31T12:13:28.848Z,1.00
2023-01-31T15:49:39.746Z,99.90
2023-01-31T18:49:10.686Z,1.00
2023-01-31T18:51:37.732Z,1.00
2023-01-31T18:54:05.839Z,1.00
2023-01-31T18:56:32.801Z,50.70
2023-01-31T18:58:59.808Z,99.90
2023-01-31T19:01:30.975Z,99.90
2023-01-31T19:03:58.555Z,99.90
2023-01-31T19:11:28.588Z,1.00
2023-01-31T19:13:56.433Z,1.00
2023-01-31T19:16:27.081Z,1.00
2023-01-31T19:18:56.164Z,1.00
2023-01-31T19:21:29.412Z,1.00
2023-01-31T19:23:59.505Z,1.00
2023-01-31T19:26:27.598Z,1.00
2023-01-31T19:28:55.370Z,1.00
2023-01-31T19:31:25.525Z,1.00
2023-01-31T19:33:56.353Z,1.00
2023-01-31T19:36:26.712Z,1.00
2023-01-31T19:38:53.896Z,1.00
2023-01-31T19:43:55.099Z,1.00
2023-01-31T19:46:24.522Z,1.00
2023-01-31T19:48:51.813Z,1.00
2023-01-31T19:51:21.776Z,1.00
2023-01-31T19:53:49.735Z,1.00
2023-01-31T19:56:17.038Z,1.00
2023-01-31T19:58:44.020Z,1.00
2023-01-31T20:01:15.978Z,9.90
2023-01-31T20:03:44.565Z,8.60
2023-01-31T20:08:42.115Z,26.60
2023-01-31T20:11:10.193Z,49.70
2023-01-31T20:26:03.064Z,42.50
2023-01-31T20:33:34.782Z,8.40
2023-01-31T20:56:05.251Z,79.20
2023-01-31T21:13:31.539Z,99.90
2023-01-31T21:36:09.018Z,99.90
2023-01-31T21:38:36.509Z,99.90
2023-01-31T22:08:56.327Z,99.90
2023-01-31T22:31:36.621Z,99.90
2023-01-31T23:23:46.046Z,99.90
